Terminal Aerodrome Forecast
Issued by NWS Albany, NY

Home | Current Version | Previous Version | Text Only | Print | Product List | Glossary On
Versions: 1 2 3 4 5 6 7 8 9 10 11 12 13 14 15 16 17 18
000
FTUS41 KALY 222300 RRA
TAFALB
TAF
KALB 222346Z 2300/2324 29010KT P6SM SCT045
      TEMPO 2300/2302 BKN045
     FM230300 29007KT P6SM FEW045
     FM230700 VRB03KT P6SM SKC
     FM231500 29006KT P6SM SKC
     FM231800 29010KT P6SM SCT035 SCT050=

USA.gov is the U.S. government's official web portal to all federal, state and local government web resources and services.